Terminal Aerodrome Forecast
Issued by NWS Blacksburg, VA

Current Version | Previous Version | Graphics & Text | Print | Product List | Glossary On
Versions: 1 2 3 4 5 6 7 8 9 10 11 12 13 14 15 16 17 18 19 20 21 22 23 24 25 26
000
FTUS41 KRNK 230443 AAA
TAFBLF
TAF AMD
KBLF 230443Z 2305/2324 25005KT 1/4SM FG SCT002 BKN090
      TEMPO 2305/2309 5SM BR BKN002
     FM230900 29004KT 3SM BR BKN002
     FM231400 33005KT P6SM BKN020
     FM231800 34006KT P6SM BKN035=

USA.gov is the U.S. government's official web portal to all federal, state and local government web resources and services.